Time;durP1;ratioP1;P1;durP2;ratioP2;P2;SDS_P1;SDS_P2;PMS_P1;PMS_P2;Temp;Humidity;BMP_temperature;BMP_pressure;BME280_temperature;BME280_humidity;BME280_pressure;Samples;Min_cycle;Max_cycle;Signal;HPM_P1;HPM_P2
2022/04/13 00:02:20;;;;;;;;;2.50;2.50;;;;;-142.59;100.00;56100.38;5112687;27;50124;-66
2022/04/13 00:04:45;;;;;;;;;3.75;3.75;;;;;-142.59;100.00;56100.38;5112281;27;49695;-67
2022/04/13 00:07:11;;;;;;;;;3.75;3.00;;;;;-142.59;100.00;56100.38;5112475;27;50023;-67
2022/04/13 00:09:36;;;;;;;;;2.00;2.00;;;;;-142.59;100.00;56100.38;5112674;27;49692;-66
2022/04/13 00:12:03;;;;;;;;;1.75;1.75;;;;;-142.59;100.00;56100.38;5112913;27;49923;-66
2022/04/13 00:14:29;;;;;;;;;3.50;2.75;;;;;-142.59;100.00;56100.38;5112346;27;51266;-66
2022/04/13 00:16:54;;;;;;;;;4.00;4.00;;;;;-142.59;100.00;56100.38;5112509;27;49700;-67
2022/04/13 00:19:21;;;;;;;;;2.25;2.25;;;;;-142.59;100.00;56100.38;5112523;27;49714;-67
2022/04/13 00:21:47;;;;;;;;;2.00;2.00;;;;;-142.59;100.00;56100.38;5112444;27;50100;-66
2022/04/13 00:24:13;;;;;;;;;4.25;2.00;;;;;-142.59;100.00;56100.38;5112126;27;49733;-66
2022/04/13 00:26:39;;;;;;;;;3.00;2.00;;;;;-142.59;100.00;56100.38;5112436;27;50076;-66
2022/04/13 00:29:05;;;;;;;;;1.00;1.00;;;;;-142.59;100.00;56100.38;5112105;27;49734;-67
2022/04/13 00:31:30;;;;;;;;;2.25;2.00;;;;;-142.59;100.00;56100.38;5112501;27;49802;-66
2022/04/13 00:33:56;;;;;;;;;3.00;2.00;;;;;-142.59;100.00;56100.38;5110968;27;51590;-67
2022/04/13 00:36:21;;;;;;;;;2.00;2.00;;;;;-142.59;100.00;56100.38;5112128;27;49750;-68
2022/04/13 00:38:47;;;;;;;;;2.00;1.25;;;;;-142.59;100.00;56100.38;5112222;27;49868;-68
2022/04/13 00:41:13;;;;;;;;;2.00;2.00;;;;;-142.59;100.00;56100.38;5112152;27;49914;-67
2022/04/13 00:43:38;;;;;;;;;3.50;2.00;;;;;-142.59;100.00;56100.38;5111389;27;50382;-67
2022/04/13 00:46:03;;;;;;;;;2.50;2.00;;;;;-142.59;100.00;56100.38;5112038;27;49753;-72
2022/04/13 00:48:40;;;;;;;;;2.50;2.00;;;;;-142.59;100.00;56100.38;5112338;27;49715;-73
2022/04/13 00:51:06;;;;;;;;;2.00;2.00;;;;;-142.59;100.00;56100.38;5112195;27;49680;-71
2022/04/13 00:53:34;;;;;;;;;2.00;1.25;;;;;-142.59;100.00;56100.38;5111954;27;49907;-74
2022/04/13 00:56:02;;;;;;;;;2.50;2.50;;;;;-142.59;100.00;56100.38;5111562;27;49681;-74
2022/04/13 00:58:31;;;;;;;;;4.50;2.50;;;;;-142.59;100.00;56100.38;5111141;27;49722;-71
2022/04/13 01:00:57;;;;;;;;;3.00;3.00;;;;;-142.59;100.00;56100.38;5111776;27;49934;-74
2022/04/13 01:03:24;;;;;;;;;4.00;1.50;;;;;-142.59;100.00;56100.38;5111668;27;50099;-68
2022/04/13 01:05:51;;;;;;;;;3.50;2.00;;;;;-142.59;100.00;56100.38;5111582;27;49733;-72
2022/04/13 01:08:17;;;;;;;;;5.25;2.50;;;;;-142.59;100.00;56100.38;5111827;27;49832;-73
2022/04/13 01:10:49;;;;;;;;;3.00;3.00;;;;;-142.59;100.00;56100.38;5111834;27;49912;-72
2022/04/13 01:13:16;;;;;;;;;2.50;2.50;;;;;-142.59;100.00;56100.38;5111210;27;49740;-72
2022/04/13 01:15:42;;;;;;;;;1.50;1.50;;;;;-142.59;100.00;56100.38;5111443;27;49726;-73
2022/04/13 01:18:08;;;;;;;;;4.00;4.00;;;;;-142.59;100.00;56100.38;5111505;27;49764;-71
2022/04/13 01:20:35;;;;;;;;;1.75;1.75;;;;;-142.59;100.00;56100.38;5111538;27;49814;-73
2022/04/13 01:23:01;;;;;;;;;2.00;2.00;;;;;-142.59;100.00;56100.38;5091581;27;50345;-71
2022/04/13 01:25:28;;;;;;;;;3.75;3.75;;;;;-142.59;100.00;56100.38;5091673;27;49615;-72
2022/04/13 01:27:53;;;;;;;;;5.25;3.00;;;;;-142.59;100.00;56100.38;5091414;27;49776;-72
2022/04/13 01:30:19;;;;;;;;;2.00;2.00;;;;;-142.59;100.00;56100.38;5091761;27;50026;-67
2022/04/13 01:32:45;;;;;;;;;2.75;2.75;;;;;-142.59;100.00;56100.38;5091450;27;50432;-68
2022/04/13 01:35:10;;;;;;;;;3.75;3.75;;;;;-142.59;100.00;56100.38;5103596;27;50215;-70
2022/04/13 01:37:35;;;;;;;;;3.75;3.00;;;;;-142.59;100.00;56100.38;5111038;27;50500;-72
2022/04/13 01:40:01;;;;;;;;;3.75;2.00;;;;;-142.59;100.00;56100.38;5111539;27;49566;-68
2022/04/13 01:42:26;;;;;;;;;8.00;7.00;;;;;-142.59;100.00;56100.38;5110827;27;49682;-67
2022/04/13 01:44:52;;;;;;;;;2.75;2.75;;;;;-142.59;100.00;56100.38;5111229;27;49843;-67
2022/04/13 01:47:17;;;;;;;;;3.00;3.00;;;;;-142.59;100.00;56100.38;5111272;27;49785;-67
2022/04/13 01:49:43;;;;;;;;;4.00;3.25;;;;;-142.59;100.00;56100.38;5111125;27;49967;-67
2022/04/13 01:52:10;;;;;;;;;3.75;2.75;;;;;-142.59;100.00;56100.38;5110369;27;49727;-66
2022/04/13 01:54:35;;;;;;;;;3.00;2.00;;;;;-142.59;100.00;56100.38;5109856;27;50447;-66
2022/04/13 01:57:01;;;;;;;;;3.00;3.00;;;;;-142.59;100.00;56100.38;5113172;27;49980;-66
2022/04/13 01:59:27;;;;;;;;;3.50;3.00;;;;;-142.59;100.00;56100.38;5114600;27;49994;-67
2022/04/13 02:01:52;;;;;;;;;5.50;5.00;;;;;-142.59;100.00;56100.38;5114510;27;50518;-66
2022/04/13 02:04:23;;;;;;;;;5.00;4.25;;;;;-142.59;100.00;56100.38;5114632;27;49719;-67
2022/04/13 02:06:49;;;;;;;;;5.00;3.25;;;;;-142.59;100.00;56100.38;5114453;27;49700;-67
2022/04/13 02:09:17;;;;;;;;;3.50;3.50;;;;;-142.59;100.00;56100.38;5114556;27;49705;-67
2022/04/13 02:11:43;;;;;;;;;3.00;3.00;;;;;-142.59;100.00;56100.38;5114094;27;49714;-67
2022/04/13 02:14:08;;;;;;;;;4.00;4.00;;;;;-142.59;100.00;56100.38;5114174;27;50012;-66
2022/04/13 02:16:35;;;;;;;;;2.00;2.00;;;;;-142.59;100.00;56100.38;5113233;27;49789;-67
2022/04/13 02:19:00;;;;;;;;;5.50;3.00;;;;;-142.59;100.00;56100.38;5114586;27;50046;-66
2022/04/13 02:21:25;;;;;;;;;3.25;3.00;;;;;-142.59;100.00;56100.38;5114012;27;49634;-67
2022/04/13 02:23:51;;;;;;;;;4.00;2.75;;;;;-142.59;100.00;56100.38;5114358;27;49635;-67
2022/04/13 02:26:17;;;;;;;;;11.00;4.75;;;;;-142.59;100.00;56100.38;5109638;27;50217;-66
2022/04/13 02:28:42;;;;;;;;;3.50;3.50;;;;;-142.59;100.00;56100.38;5094199;27;49755;-70
2022/04/13 02:31:08;;;;;;;;;3.00;2.00;;;;;-142.59;100.00;56100.38;5094178;27;49766;-70
2022/04/13 02:33:33;;;;;;;;;4.00;3.00;;;;;-142.59;100.00;56100.38;5094380;27;49766;-73
2022/04/13 02:35:59;;;;;;;;;3.25;3.25;;;;;-142.59;100.00;56100.38;5094394;27;49900;-74
2022/04/13 02:38:25;;;;;;;;;2.00;2.00;;;;;-142.59;100.00;56100.38;5094578;27;49845;-73
2022/04/13 02:40:50;;;;;;;;;3.00;3.00;;;;;-142.59;100.00;56100.38;5094043;27;50504;-73
2022/04/13 02:43:16;;;;;;;;;4.00;3.00;;;;;-142.59;100.00;56100.38;5093968;27;50033;-74
2022/04/13 02:45:41;;;;;;;;;3.50;3.50;;;;;-142.59;100.00;56100.38;5094100;27;49802;-74
2022/04/13 02:48:07;;;;;;;;;3.75;3.75;;;;;-142.59;100.00;56100.38;5094188;27;49914;-71
2022/04/13 02:50:33;;;;;;;;;4.00;4.00;;;;;-142.59;100.00;56100.38;5093980;27;50783;-75
2022/04/13 02:52:58;;;;;;;;;5.50;5.50;;;;;-142.59;100.00;56100.38;5094062;27;49935;-74
2022/04/13 02:55:24;;;;;;;;;10.50;6.50;;;;;-142.59;100.00;56100.38;5094221;27;49773;-67
2022/04/13 02:57:49;;;;;;;;;5.75;4.50;;;;;-142.59;100.00;56100.38;5093888;27;49752;-74
2022/04/13 03:00:15;;;;;;;;;7.50;6.00;;;;;-142.59;100.00;56100.38;5093700;27;49676;-76
2022/04/13 03:02:41;;;;;;;;;6.25;5.75;;;;;-142.59;100.00;56100.38;5093801;27;49919;-76
2022/04/13 03:05:07;;;;;;;;;5.50;5.50;;;;;-142.59;100.00;56100.38;5093722;27;49819;-75
2022/04/13 03:07:33;;;;;;;;;6.00;4.50;;;;;-142.59;100.00;56100.38;5092838;27;49822;-68
2022/04/13 03:09:59;;;;;;;;;6.75;4.75;;;;;-142.59;100.00;56100.38;5093685;27;50725;-67
2022/04/13 03:12:26;;;;;;;;;6.50;6.50;;;;;-142.59;100.00;56100.38;5093639;27;49900;-68
2022/04/13 03:14:51;;;;;;;;;4.00;4.00;;;;;-142.59;100.00;56100.38;5093718;27;49724;-67
2022/04/13 03:17:17;;;;;;;;;6.00;5.25;;;;;-142.59;100.00;56100.38;5093852;27;50026;-70
2022/04/13 03:19:42;;;;;;;;;6.75;5.25;;;;;-142.59;100.00;56100.38;5093261;27;50419;-67
2022/04/13 03:22:07;;;;;;;;;1.75;1.75;;;;;-142.59;100.00;56100.38;5093523;27;49900;-68
2022/04/13 03:24:34;;;;;;;;;6.50;6.50;;;;;-142.59;100.00;56100.38;5093441;27;49952;-67
2022/04/13 03:26:59;;;;;;;;;8.25;4.75;;;;;-142.59;100.00;56100.38;5093453;27;49850;-67
2022/04/13 03:29:25;;;;;;;;;2.75;2.75;;;;;-142.59;100.00;56100.38;5093414;27;50471;-67
2022/04/13 03:31:51;;;;;;;;;5.50;5.50;;;;;-142.59;100.00;56100.38;5092234;27;49982;-68
2022/04/13 03:34:20;;;;;;;;;8.25;7.00;;;;;-142.59;100.00;56100.38;5093537;27;49699;-67
2022/04/13 03:36:48;;;;;;;;;8.00;5.00;;;;;-142.59;100.00;56100.38;5093501;27;49938;-68
2022/04/13 03:39:14;;;;;;;;;5.75;5.00;;;;;-142.59;100.00;56100.38;5093083;27;50917;-68
2022/04/13 03:41:39;;;;;;;;;5.75;5.50;;;;;-142.59;100.00;56100.38;5092977;27;50320;-67
2022/04/13 03:44:06;;;;;;;;;6.75;6.25;;;;;-142.59;100.00;56100.38;5093017;27;50172;-68
2022/04/13 03:46:31;;;;;;;;;6.75;5.50;;;;;-142.59;100.00;56100.38;5093367;27;49667;-67
2022/04/13 03:48:57;;;;;;;;;7.00;6.25;;;;;-142.59;100.00;56100.38;5093153;27;49789;-67
2022/04/13 03:51:22;;;;;;;;;11.00;11.00;;;;;-142.59;100.00;56100.38;5093407;27;50582;-67
2022/04/13 03:53:48;;;;;;;;;4.50;4.50;;;;;-142.59;100.00;56100.38;5093131;27;49749;-67
2022/04/13 03:56:13;;;;;;;;;8.50;7.00;;;;;-142.59;100.00;56100.38;5093071;27;49961;-68
2022/04/13 03:58:40;;;;;;;;;9.00;6.50;;;;;-142.59;100.00;56100.38;5092536;27;50646;-67
2022/04/13 04:01:07;;;;;;;;;9.25;8.25;;;;;-142.59;100.00;56100.38;5092713;27;49942;-68
2022/04/13 04:03:34;;;;;;;;;7.50;5.50;;;;;-142.59;100.00;56100.38;5093097;27;49685;-68
2022/04/13 04:05:59;;;;;;;;;8.75;6.75;;;;;-142.59;100.00;56100.38;5093268;27;49811;-67
2022/04/13 04:08:26;;;;;;;;;6.00;6.00;;;;;-142.59;100.00;56100.38;5093143;27;50671;-67
2022/04/13 04:10:52;;;;;;;;;6.50;6.50;;;;;-142.59;100.00;56100.38;5092807;27;49714;-67
2022/04/13 04:13:17;;;;;;;;;8.75;7.00;;;;;-142.59;100.00;56100.38;5092775;27;49817;-68
2022/04/13 04:15:43;;;;;;;;;8.75;7.50;;;;;-142.59;100.00;56100.38;5092464;27;49636;-67
2022/04/13 04:18:08;;;;;;;;;7.75;4.00;;;;;-142.59;100.00;56100.38;5100743;27;50020;-67
2022/04/13 04:20:34;;;;;;;;;7.25;7.00;;;;;-142.59;100.00;56100.38;5096941;27;49801;-67
2022/04/13 04:22:59;;;;;;;;;15.00;11.50;;;;;-142.59;100.00;56100.38;5092639;27;49769;-67
2022/04/13 04:25:25;;;;;;;;;11.25;9.25;;;;;-142.59;100.00;56100.38;5104414;27;50052;-67
2022/04/13 04:27:50;;;;;;;;;8.25;8.25;;;;;-142.59;100.00;56100.38;5099530;27;50239;-67
2022/04/13 04:30:16;;;;;;;;;13.00;12.00;;;;;-142.59;100.00;56100.38;5102150;27;49912;-67
2022/04/13 04:32:41;;;;;;;;;12.75;10.25;;;;;-142.59;100.00;56100.38;5111845;27;49891;-66
2022/04/13 04:35:07;;;;;;;;;10.25;9.75;;;;;-142.59;100.00;56100.38;5100340;27;49899;-67
2022/04/13 04:37:33;;;;;;;;;13.50;8.00;;;;;-142.59;100.00;56100.38;5099652;27;50447;-67
2022/04/13 04:39:58;;;;;;;;;8.25;7.00;;;;;-142.59;100.00;56100.38;5098641;27;50139;-67
2022/04/13 04:42:24;;;;;;;;;7.50;6.75;;;;;-142.59;100.00;56100.38;5105100;27;49816;-67
2022/04/13 04:44:55;;;;;;;;;7.75;7.00;;;;;-142.59;100.00;56100.38;5104916;27;49904;-67
2022/04/13 04:47:20;;;;;;;;;7.75;7.75;;;;;-142.59;100.00;56100.38;5104994;27;49975;-67
2022/04/13 04:49:46;;;;;;;;;9.50;7.25;;;;;-142.59;100.00;56100.38;5101845;27;49763;-67
2022/04/13 04:52:11;;;;;;;;;7.50;7.50;;;;;-142.59;100.00;56100.38;5104617;27;49881;-67
2022/04/13 04:54:37;;;;;;;;;10.00;10.00;;;;;-142.59;100.00;56100.38;5110525;27;49702;-64
2022/04/13 04:57:02;;;;;;;;;12.50;11.50;;;;;-142.59;100.00;56100.38;5109907;27;50369;-65
2022/04/13 04:59:28;;;;;;;;;13.50;9.50;;;;;-142.59;100.00;56100.38;5110010;27;49868;-66
2022/04/13 05:01:53;;;;;;;;;13.75;10.00;;;;;-142.59;100.00;56100.38;5104581;27;49805;-66
2022/04/13 05:04:18;;;;;;;;;11.00;10.50;;;;;-142.59;100.00;56100.38;5104959;27;50180;-70
2022/04/13 05:06:43;;;;;;;;;10.00;9.25;;;;;-142.59;100.00;56100.38;5104492;27;50820;-68
2022/04/13 05:09:09;;;;;;;;;8.50;6.75;;;;;-142.59;100.00;56100.38;5103769;27;49848;-71
2022/04/13 05:11:34;;;;;;;;;13.00;12.25;;;;;-142.59;100.00;56100.38;5098467;27;51139;-73
2022/04/13 05:13:59;;;;;;;;;6.25;6.25;;;;;-142.59;100.00;56100.38;5098287;27;49866;-73
2022/04/13 05:16:25;;;;;;;;;14.00;12.00;;;;;-142.59;100.00;56100.38;5104157;27;49694;-68
2022/04/13 05:18:50;;;;;;;;;11.75;9.75;;;;;-142.59;100.00;56100.38;5104557;27;49691;-73
2022/04/13 05:21:16;;;;;;;;;9.25;9.25;;;;;-142.59;100.00;56100.38;5098963;27;50079;-69
2022/04/13 05:23:42;;;;;;;;;9.75;8.50;;;;;-142.59;100.00;56100.38;5104904;27;49791;-69
2022/04/13 05:26:08;;;;;;;;;9.50;8.25;;;;;-142.59;100.00;56100.38;5109841;27;50786;-72
2022/04/13 05:28:33;;;;;;;;;12.50;9.50;;;;;-142.59;100.00;56100.38;5110818;27;49831;-73
2022/04/13 05:30:59;;;;;;;;;7.50;7.50;;;;;-142.59;100.00;56100.38;5105994;27;49738;-70
2022/04/13 05:33:24;;;;;;;;;12.00;12.00;;;;;-142.59;100.00;56100.38;5099587;27;50444;-66
2022/04/13 05:35:50;;;;;;;;;9.00;7.75;;;;;-142.59;100.00;56100.38;5119611;27;50364;-71
2022/04/13 05:38:16;;;;;;;;;11.25;8.75;;;;;-142.59;100.00;56100.38;5108134;27;50085;-68
2022/04/13 05:40:42;;;;;;;;;11.75;11.75;;;;;-142.59;100.00;56100.38;5107970;27;49876;-71
2022/04/13 05:43:07;;;;;;;;;9.25;7.25;;;;;-142.59;100.00;56100.38;5102908;27;49974;-70
2022/04/13 05:45:33;;;;;;;;;9.00;8.50;;;;;-142.59;100.00;56100.38;5105060;27;49895;-68
2022/04/13 05:47:58;;;;;;;;;14.75;11.50;;;;;-142.59;100.00;56100.38;5102871;27;49711;-63
2022/04/13 05:50:24;;;;;;;;;10.50;9.25;;;;;-142.59;100.00;56100.38;5108086;27;50037;-62
2022/04/13 05:52:49;;;;;;;;;11.25;9.75;;;;;-142.59;100.00;56100.38;5106312;27;50010;-64
2022/04/13 05:55:15;;;;;;;;;12.00;10.00;;;;;-142.59;100.00;56100.38;5108364;27;50502;-63
2022/04/13 05:57:41;;;;;;;;;8.75;8.75;;;;;-142.59;100.00;56100.38;5104053;27;49900;-65
2022/04/13 06:00:10;;;;;;;;;10.00;8.00;;;;;-142.59;100.00;56100.38;5108282;27;49642;-66
2022/04/13 06:02:36;;;;;;;;;9.25;8.25;;;;;-142.59;100.00;56100.38;5109930;27;49892;-67
2022/04/13 06:05:02;;;;;;;;;12.00;10.00;;;;;-142.59;100.00;56100.38;5109493;27;49779;-76
2022/04/13 06:07:28;;;;;;;;;11.50;11.00;;;;;-142.59;100.00;56100.38;5114524;27;49762;-68
2022/04/13 06:09:53;;;;;;;;;11.50;7.00;;;;;-142.59;100.00;56100.38;5124452;27;49419;-77
2022/04/13 06:12:22;;;;;;;;;0.75;0.75;;;;;-142.59;100.00;56100.38;5121645;27;49515;-69
2022/04/13 06:14:48;;;;;;;;;10.75;9.25;;;;;-142.59;100.00;56100.38;5123404;27;50178;-66
2022/04/13 06:17:13;;;;;;;;;11.00;11.00;;;;;-142.59;100.00;56100.38;5122264;27;49712;-64
2022/04/13 06:19:39;;;;;;;;;13.75;11.00;;;;;-142.59;100.00;56100.38;5118685;27;49356;-66
2022/04/13 06:22:04;;;;;;;;;11.75;11.75;;;;;-142.59;100.00;56100.38;5129009;27;49736;-77
2022/04/13 06:24:29;;;;;;;;;10.50;8.50;;;;;-142.59;100.00;56100.38;5120402;27;50349;-69
2022/04/13 06:26:55;;;;;;;;;15.25;12.75;;;;;-142.59;100.00;56100.38;5123144;27;49513;-66
2022/04/13 06:29:20;;;;;;;;;12.25;11.75;;;;;-142.59;100.00;56100.38;5123291;27;49366;-66
2022/04/13 06:31:45;;;;;;;;;12.75;11.00;;;;;-142.59;100.00;56100.38;5119178;27;49307;-64
2022/04/13 06:34:11;;;;;;;;;16.00;11.25;;;;;-142.59;100.00;56100.38;5122997;27;49410;-66
2022/04/13 06:36:36;;;;;;;;;14.00;11.50;;;;;-142.59;100.00;56100.38;5120219;27;49543;-66
2022/04/13 06:39:01;;;;;;;;;10.50;8.50;;;;;-142.59;100.00;56100.38;5116614;27;49471;-66
2022/04/13 06:41:27;;;;;;;;;14.75;10.75;;;;;-142.59;100.00;56100.38;5118618;27;49659;-66
2022/04/13 06:43:53;;;;;;;;;13.50;12.50;;;;;-142.59;100.00;56100.38;5124380;27;49466;-67
2022/04/13 06:46:19;;;;;;;;;15.50;12.00;;;;;-142.59;100.00;56100.38;5121131;27;49422;-67
2022/04/13 06:48:44;;;;;;;;;16.00;13.00;;;;;-142.59;100.00;56100.38;5120420;27;49194;-69
2022/04/13 06:51:10;;;;;;;;;11.75;11.25;;;;;-142.59;100.00;56100.38;5111635;27;49566;-70
2022/04/13 06:53:35;;;;;;;;;13.00;13.00;;;;;-142.59;100.00;56100.38;5116395;27;49468;-78
2022/04/13 06:56:01;;;;;;;;;13.25;13.25;;;;;-142.59;100.00;56100.38;5112137;27;49484;-70
2022/04/13 06:58:26;;;;;;;;;15.00;13.00;;;;;-142.59;100.00;56100.38;5099230;27;49904;-70
2022/04/13 07:00:52;;;;;;;;;15.25;14.50;;;;;-142.59;100.00;56100.38;5108070;27;50226;-76
2022/04/13 07:03:17;;;;;;;;;15.25;12.00;;;;;-142.59;100.00;56100.38;5118921;27;50720;-69
2022/04/13 07:05:43;;;;;;;;;14.25;12.50;;;;;-142.59;100.00;56100.38;5107633;27;49887;-69
2022/04/13 07:08:09;;;;;;;;;20.00;15.00;;;;;-142.59;100.00;56100.38;5110501;27;49733;-73
2022/04/13 07:10:34;;;;;;;;;19.50;15.50;;;;;-142.59;100.00;56100.38;5112205;27;49814;-73
2022/04/13 07:13:00;;;;;;;;;13.50;8.00;;;;;-142.59;100.00;56100.38;5104579;27;49896;-73
2022/04/13 07:15:27;;;;;;;;;17.25;16.75;;;;;-142.59;100.00;56100.38;5112682;27;49971;-71
2022/04/13 07:17:52;;;;;;;;;16.75;15.75;;;;;-142.59;100.00;56100.38;5113676;27;49949;-69
2022/04/13 07:20:20;;;;;;;;;16.75;15.00;;;;;-142.59;100.00;56100.38;5098225;27;49588;-74
2022/04/13 07:22:50;;;;;;;;;18.75;16.25;;;;;-142.59;100.00;56100.38;5097923;27;50052;-71
2022/04/13 07:25:17;;;;;;;;;19.75;17.75;;;;;-142.59;100.00;56100.38;5107532;27;50091;-80
2022/04/13 07:27:43;;;;;;;;;18.50;18.50;;;;;-142.59;100.00;56100.38;5111943;27;49940;-82
2022/04/13 07:30:09;;;;;;;;;16.75;15.50;;;;;-142.59;100.00;56100.38;5098067;27;50055;-68
2022/04/13 07:32:35;;;;;;;;;18.25;16.25;;;;;-142.59;100.00;56100.38;5097986;27;51040;-65
2022/04/13 07:35:02;;;;;;;;;17.00;15.75;;;;;-142.59;100.00;56100.38;5107413;27;49895;-67
2022/04/13 07:37:29;;;;;;;;;15.50;13.50;;;;;-142.59;100.00;56100.38;5093813;27;49737;-71
2022/04/13 07:39:54;;;;;;;;;17.00;14.50;;;;;-142.59;100.00;56100.38;5093044;27;49723;-64
2022/04/13 07:42:25;;;;;;;;;19.00;17.75;;;;;-142.59;100.00;56100.38;5093803;27;50037;-64
2022/04/13 07:44:50;;;;;;;;;16.25;15.75;;;;;-142.59;100.00;56100.38;5093290;27;49773;-63
2022/04/13 07:47:16;;;;;;;;;17.25;16.50;;;;;-142.59;100.00;56100.38;5093624;27;49766;-64
2022/04/13 07:49:43;;;;;;;;;20.25;16.75;;;;;-142.59;100.00;56100.38;5095119;27;49851;-65
2022/04/13 07:52:09;;;;;;;;;22.00;18.25;;;;;-142.59;100.00;56100.38;5094277;27;50053;-64
2022/04/13 07:54:34;;;;;;;;;21.25;20.75;;;;;-142.59;100.00;56100.38;5092389;27;49718;-68
2022/04/13 07:57:00;;;;;;;;;17.75;17.00;;;;;-142.59;100.00;56100.38;5091599;27;50053;-66
2022/04/13 07:59:26;;;;;;;;;19.50;18.50;;;;;-142.59;100.00;56100.38;5093126;27;49111;-66
2022/04/13 08:01:51;;;;;;;;;18.75;18.50;;;;;-142.59;100.00;56100.38;5091646;27;50482;-68
2022/04/13 08:04:16;;;;;;;;;23.25;22.00;;;;;-142.59;100.00;56100.38;5093264;27;49881;-67
2022/04/13 08:06:42;;;;;;;;;17.00;16.75;;;;;-142.59;100.00;56100.38;5092841;27;49762;-68
2022/04/13 08:09:07;;;;;;;;;18.25;16.50;;;;;-142.59;100.00;56100.38;5093387;27;49647;-67
2022/04/13 08:11:33;;;;;;;;;16.25;15.25;;;;;-142.59;100.00;56100.38;5094132;27;50084;-67
2022/04/13 08:13:58;;;;;;;;;17.00;15.25;;;;;-142.59;100.00;56100.38;5093035;27;49772;-67
2022/04/13 08:16:23;;;;;;;;;16.50;15.25;;;;;-142.59;100.00;56100.38;5092889;27;49603;-66
2022/04/13 08:18:48;;;;;;;;;22.25;18.50;;;;;-142.59;100.00;56100.38;5092833;27;50274;-63
2022/04/13 08:21:14;;;;;;;;;20.00;19.75;;;;;-142.59;100.00;56100.38;5092594;27;49726;-65
2022/04/13 08:23:39;;;;;;;;;22.00;19.50;;;;;-142.59;100.00;56100.38;5093412;27;49636;-64
2022/04/13 08:26:05;;;;;;;;;20.25;18.50;;;;;-142.59;100.00;56100.38;5092788;27;49858;-66
2022/04/13 08:28:30;;;;;;;;;18.25;17.25;;;;;-142.59;100.00;56100.38;5096619;27;49768;-65
2022/04/13 08:30:56;;;;;;;;;18.25;16.25;;;;;-142.59;100.00;56100.38;5092130;27;49638;-65
2022/04/13 08:33:21;;;;;;;;;16.75;16.75;;;;;-142.59;100.00;56100.38;5092573;27;49688;-67
2022/04/13 08:35:46;;;;;;;;;20.75;19.25;;;;;-142.59;100.00;56100.38;5092393;27;49822;-65
2022/04/13 08:38:12;;;;;;;;;21.00;20.25;;;;;-142.59;100.00;56100.38;5092465;27;49756;-66
2022/04/13 08:40:45;;;;;;;;;23.25;20.50;;;;;-142.59;100.00;56100.38;5092325;27;50297;-66
2022/04/13 08:43:11;;;;;;;;;25.50;22.50;;;;;-142.59;100.00;56100.38;5092917;27;49750;-64
2022/04/13 08:45:44;;;;;;;;;24.50;23.00;;;;;-142.59;100.00;56100.38;5092055;27;49937;-65
2022/04/13 08:48:12;;;;;;;;;21.00;21.00;;;;;-142.59;100.00;56100.38;5092421;27;49852;-66
2022/04/13 08:50:38;;;;;;;;;20.50;17.50;;;;;-142.59;100.00;56100.38;5091940;27;49743;-66
2022/04/13 08:53:12;;;;;;;;;21.50;20.00;;;;;-142.59;100.00;56100.38;5094572;27;49824;-66
2022/04/13 08:55:48;;;;;;;;;20.50;17.00;;;;;-142.59;100.00;56100.38;5107214;27;49818;-65
2022/04/13 08:58:27;;;;;;;;;22.75;20.25;;;;;-142.59;100.00;56100.38;5106892;27;49942;-65
2022/04/13 09:00:57;;;;;;;;;15.25;14.25;;;;;-142.59;100.00;56100.38;5097381;27;49861;-67
2022/04/13 09:03:44;;;;;;;;;23.00;18.75;;;;;-142.59;100.00;56100.38;5096577;27;49698;-66
2022/04/13 09:06:12;;;;;;;;;19.75;19.25;;;;;-142.59;100.00;56100.38;5090715;27;49789;-72
2022/04/13 09:09:01;;;;;;;;;19.25;17.50;;;;;-142.59;100.00;56100.38;5091730;27;49605;-66
2022/04/13 09:11:30;;;;;;;;;17.75;16.50;;;;;-142.59;100.00;56100.38;5091591;27;51217;-67
2022/04/13 09:13:56;;;;;;;;;17.00;16.00;;;;;-142.59;100.00;56100.38;5092864;27;50064;-67
2022/04/13 09:16:22;;;;;;;;;17.25;17.25;;;;;-142.59;100.00;56100.38;5094000;27;49823;-67
2022/04/13 09:18:48;;;;;;;;;15.75;15.75;;;;;-142.59;100.00;56100.38;5092129;27;50118;-66
2022/04/13 09:21:17;;;;;;;;;15.50;15.50;;;;;-142.59;100.00;56100.38;5091692;27;49839;-66
2022/04/13 09:23:43;;;;;;;;;16.50;15.75;;;;;-142.59;100.00;56100.38;5091956;27;49738;-73
2022/04/13 09:26:10;;;;;;;;;22.00;19.25;;;;;-142.59;100.00;56100.38;5117322;27;49949;-66
2022/04/13 09:28:37;;;;;;;;;21.00;17.75;;;;;-142.59;100.00;56100.38;5112579;27;49735;-68
2022/04/13 09:31:03;;;;;;;;;18.00;16.75;;;;;-142.59;100.00;56100.38;5097612;27;50509;-65
2022/04/13 09:33:28;;;;;;;;;21.50;19.00;;;;;-142.59;100.00;56100.38;5091971;27;49660;-65
2022/04/13 09:35:53;;;;;;;;;25.00;21.25;;;;;-142.59;100.00;56100.38;5091596;27;49778;-64
2022/04/13 09:38:19;;;;;;;;;21.25;21.00;;;;;-142.59;100.00;56100.38;5092076;27;50122;-65
2022/04/13 09:40:45;;;;;;;;;23.50;21.75;;;;;-142.59;100.00;56100.38;5089854;27;51275;-65
2022/04/13 09:43:19;;;;;;;;;24.25;20.25;;;;;-142.59;100.00;56100.38;5091427;27;50104;-66
2022/04/13 09:45:47;;;;;;;;;21.75;21.50;;;;;-142.59;100.00;56100.38;5093353;27;49836;-66
2022/04/13 09:48:16;;;;;;;;;17.50;17.00;;;;;-142.59;100.00;56100.38;5092028;27;49877;-65
2022/04/13 09:50:44;;;;;;;;;16.75;15.00;;;;;-142.59;100.00;56100.38;5108955;27;49698;-67
2022/04/13 09:53:11;;;;;;;;;10.00;8.75;;;;;-142.59;100.00;56100.38;5107845;27;49763;-66
2022/04/13 09:55:39;;;;;;;;;10.00;8.75;;;;;-142.59;100.00;56100.38;5110109;27;50037;-66
2022/04/13 09:58:15;;;;;;;;;12.75;12.25;;;;;-142.59;100.00;56100.38;5110807;27;49796;-67
2022/04/13 10:00:42;;;;;;;;;11.50;11.50;;;;;-142.59;100.00;56100.38;5103987;27;49703;-67
2022/04/13 10:03:13;;;;;;;;;8.00;7.75;;;;;-142.59;100.00;56100.38;5091215;27;49748;-66
2022/04/13 10:05:43;;;;;;;;;11.00;11.00;;;;;-142.59;100.00;56100.38;5096170;27;49750;-66
2022/04/13 10:08:09;;;;;;;;;14.50;13.50;;;;;-142.59;100.00;56100.38;5093741;27;50093;-67
2022/04/13 10:10:38;;;;;;;;;19.00;19.00;;;;;-142.59;100.00;56100.38;5091013;27;50363;-66
2022/04/13 10:13:04;;;;;;;;;16.50;12.75;;;;;-142.59;100.00;56100.38;5091052;27;49722;-66
2022/04/13 10:15:29;;;;;;;;;17.25;14.50;;;;;-142.59;100.00;56100.38;5091003;27;49995;-69
2022/04/13 10:17:59;;;;;;;;;17.00;16.75;;;;;-142.59;100.00;56100.38;5097955;27;49996;-74
2022/04/13 10:20:45;;;;;;;;;13.50;13.00;;;;;-142.59;100.00;56100.38;5114826;27;49608;-68
2022/04/13 10:23:11;;;;;;;;;15.50;13.00;;;;;-142.59;100.00;56100.38;5118257;27;49731;-73
2022/04/13 10:25:37;;;;;;;;;12.75;12.00;;;;;-142.59;100.00;56100.38;5119240;27;49842;-68
2022/04/13 10:28:03;;;;;;;;;12.00;11.25;;;;;-142.59;100.00;56100.38;5116775;27;49595;-71
2022/04/13 10:30:32;;;;;;;;;15.75;14.00;;;;;-142.59;100.00;56100.38;5113361;27;49861;-70
2022/04/13 10:33:05;;;;;;;;;12.75;12.75;;;;;-142.59;100.00;56100.38;5100194;27;49717;-73
2022/04/13 10:35:34;;;;;;;;;12.00;11.75;;;;;-142.59;100.00;56100.38;5098515;27;50111;-70
2022/04/13 10:37:59;;;;;;;;;12.00;12.00;;;;;-142.59;100.00;56100.38;5094664;27;49840;-75
2022/04/13 10:40:26;;;;;;;;;14.00;13.00;;;;;-142.59;100.00;56100.38;5094071;27;51361;-75
2022/04/13 10:42:53;;;;;;;;;9.25;9.25;;;;;-142.59;100.00;56100.38;5094385;27;49750;-75
2022/04/13 10:45:19;;;;;;;;;12.00;11.25;;;;;-142.59;100.00;56100.38;5094136;27;49678;-75
2022/04/13 10:47:54;;;;;;;;;10.25;10.00;;;;;-142.59;100.00;56100.38;5091750;27;49641;-79
2022/04/13 10:50:30;;;;;;;;;15.00;11.75;;;;;-142.59;100.00;56100.38;5104989;27;49874;-77
2022/04/13 10:53:06;;;;;;;;;13.00;11.00;;;;;-142.59;100.00;56100.38;5103175;27;49894;-85
2022/04/13 10:55:34;;;;;;;;;10.75;9.25;;;;;-142.59;100.00;56100.38;5099024;27;49718;-81
2022/04/13 10:58:05;;;;;;;;;14.75;10.25;;;;;-142.59;100.00;56100.38;5106481;27;49920;-76
2022/04/13 11:00:35;;;;;;;;;8.50;7.25;;;;;-142.59;100.00;56100.38;5107517;27;50599;-78